Saipan, MP (96950)

10:29 AM ChST on January 20, 2017 (GMT +1000)
Red Cross-Airport | | Change Station
Active Advisory: Small Craft Advisory

Elev 215 ft 15.13 °N, 145.72 °E | Updated 29 minutes ago

Scattered Clouds
Scattered Clouds
81.2 °F
Feels Like 85 °F
N
11.0
Wind Variable Wind from ENE
Gusts 20.0 mph

Today
High -- | Low -- °F
--% Chance of Precip.
Yesterday
High -- | Low -- °F
Precip. -- in
Pressure 30.06 in
Visibility 10.0 miles
Clouds Scattered Clouds 2800 ft
Heat Index 85 °F
Dew Point 71 °F
Humidity 71%
Rainfall Not available.
Snow Depth Not available.
6:47 AM 6:09 PM
Waning Gibbous, 49% visible
METAR PGSN 192354Z 08015KT 10SM SCT028 28/21 A2999 RMK AO2 SLP177 T02830211 10283 20244 51010
Pressure 30.06 in
Visibility 10.0 miles
Clouds Scattered Clouds 2800 ft
Heat Index 85 °F
Dew Point 71 °F
Humidity 71%
Rainfall Not available.
Snow Depth Not available.
6:47 AM 6:09 PM
Waning Gibbous, 49% visible
METAR PGSN 192354Z 08015KT 10SM SCT028 28/21 A2999 RMK AO2 SLP177 T02830211 10283 20244 51010

Get Your Daily Forecast Email!

Thanks for signing up!

Be on the lookout for a verification email in your inbox.

You'll start receiving the daily forecast at 8 AM.

×

10-Day Weather Forecast

Almanac

Astronomy

Jan. 20, 2017 Rise Set
Actual Time
Civil Twilight
Nautical Twilight
Astronomical Twilight
Moon
Length of Visible Light
Length of Day
Tomorrow will be .
, % of the Moon is Illuminated

Today's Extremes

State Highs State Lows

Community

WunderPhotos

Upload Photos

1,962,540 photos uploaded!

WunderBlog® & News

Nearby

Air Quality

  Air Quality AQ Index Pollutant
Not available.

Snow Depth

Station Depth Elevation

Earthquake Activity

City Distance Mag. Time & Date
Minimum magnitude displayed is 2.5.

Coastal Water Temperatures

Place Temperature

Stations

Nearby Weather Stations

Station Location Temp. Windchill Dew Point Humidity Wind Precip. Elev Updated Type
                   

Watches & Warnings

Small Craft Advisory
Issued: 6:02 AM GMT Jan. 20, 2017 – National Weather Service

... Small Craft Advisory remains in effect until 6 am chst Saturday...

The Small Craft Advisory has been extended until 6 am chst Saturday.

Combined seas of 9 to 11 feet will gradually subside through
Saturday... eventually falling below hazardous levels of 10 feet
Saturday morning.

Northeast winds of 15 to 25 knots will subside slightly tonight but
briefly hover near hazardous levels Saturday night and Sunday
morning.

Precautionary/preparedness actions...

Inexperienced mariners... especially those operating smaller
vessels... should avoid sailing in these conditions.



Aydlett